sensor_id;sensor_type;location;lat;lon;timestamp;P1;durP1;ratioP1;P2;durP2;ratioP2
8929;SDS011;4500;49.074;9.110;2024-01-15T00:00:46;14.93;;;12.75;;
8929;SDS011;4500;49.074;9.110;2024-01-15T00:03:14;5.88;;;5.57;;
8929;SDS011;4500;49.074;9.110;2024-01-15T00:05:42;7.75;;;7.35;;
8929;SDS011;4500;49.074;9.110;2024-01-15T00:08:09;4.40;;;4.20;;
8929;SDS011;4500;49.074;9.110;2024-01-15T00:10:36;3.75;;;3.58;;
8929;SDS011;4500;49.074;9.110;2024-01-15T00:13:06;2.30;;;2.20;;
8929;SDS011;4500;49.074;9.110;2024-01-15T00:15:33;1.58;;;1.50;;
8929;SDS011;4500;49.074;9.110;2024-01-15T00:18:01;0.90;;;0.90;;
8929;SDS011;4500;49.074;9.110;2024-01-15T00:20:30;0.80;;;0.80;;
8929;SDS011;4500;49.074;9.110;2024-01-15T00:22:58;1.00;;;1.00;;
8929;SDS011;4500;49.074;9.110;2024-01-15T00:25:26;0.93;;;0.93;;
8929;SDS011;4500;49.074;9.110;2024-01-15T00:27:55;2.67;;;2.58;;
8929;SDS011;4500;49.074;9.110;2024-01-15T00:30:22;3.08;;;2.97;;
8929;SDS011;4500;49.074;9.110;2024-01-15T00:32:51;5.47;;;5.18;;
8929;SDS011;4500;49.074;9.110;2024-01-15T00:35:19;5.78;;;5.47;;
8929;SDS011;4500;49.074;9.110;2024-01-15T00:37:46;5.25;;;5.00;;
8929;SDS011;4500;49.074;9.110;2024-01-15T00:40:14;6.60;;;6.28;;
8929;SDS011;4500;49.074;9.110;2024-01-15T00:42:42;8.88;;;8.35;;
8929;SDS011;4500;49.074;9.110;2024-01-15T00:45:11;5.22;;;4.95;;
8929;SDS011;4500;49.074;9.110;2024-01-15T00:47:41;6.43;;;6.13;;
8929;SDS011;4500;49.074;9.110;2024-01-15T00:50:09;4.22;;;4.03;;
8929;SDS011;4500;49.074;9.110;2024-01-15T00:52:38;3.95;;;3.75;;
8929;SDS011;4500;49.074;9.110;2024-01-15T00:55:05;2.45;;;2.35;;
8929;SDS011;4500;49.074;9.110;2024-01-15T00:57:33;1.20;;;1.20;;
8929;SDS011;4500;49.074;9.110;2024-01-15T01:00:01;0.85;;;0.85;;
8929;SDS011;4500;49.074;9.110;2024-01-15T01:02:32;1.10;;;1.10;;
8929;SDS011;4500;49.074;9.110;2024-01-15T01:05:00;0.90;;;0.90;;
8929;SDS011;4500;49.074;9.110;2024-01-15T01:07:28;1.20;;;1.20;;
8929;SDS011;4500;49.074;9.110;2024-01-15T01:09:56;1.02;;;1.02;;
8929;SDS011;4500;49.074;9.110;2024-01-15T01:12:24;1.10;;;1.10;;
8929;SDS011;4500;49.074;9.110;2024-01-15T01:14:52;10.48;;;9.38;;
8929;SDS011;4500;49.074;9.110;2024-01-15T01:17:19;5.90;;;5.60;;
8929;SDS011;4500;49.074;9.110;2024-01-15T01:19:46;4.97;;;4.72;;
8929;SDS011;4500;49.074;9.110;2024-01-15T01:22:14;5.72;;;5.43;;
8929;SDS011;4500;49.074;9.110;2024-01-15T01:24:42;12.35;;;11.60;;
8929;SDS011;4500;49.074;9.110;2024-01-15T01:27:10;7.72;;;7.15;;
8929;SDS011;4500;49.074;9.110;2024-01-15T01:29:41;6.35;;;6.05;;
8929;SDS011;4500;49.074;9.110;2024-01-15T01:32:10;6.28;;;5.97;;
8929;SDS011;4500;49.074;9.110;2024-01-15T01:34:40;8.40;;;7.95;;
8929;SDS011;4500;49.074;9.110;2024-01-15T01:37:12;3.83;;;3.63;;
8929;SDS011;4500;49.074;9.110;2024-01-15T01:39:43;6.07;;;5.78;;
8929;SDS011;4500;49.074;9.110;2024-01-15T01:42:11;5.93;;;5.63;;
8929;SDS011;4500;49.074;9.110;2024-01-15T01:44:39;3.35;;;3.15;;
8929;SDS011;4500;49.074;9.110;2024-01-15T01:47:08;7.97;;;5.63;;
8929;SDS011;4500;49.074;9.110;2024-01-15T01:49:36;2.45;;;2.35;;
8929;SDS011;4500;49.074;9.110;2024-01-15T01:52:06;2.33;;;2.20;;
8929;SDS011;4500;49.074;9.110;2024-01-15T01:54:34;1.45;;;1.40;;
8929;SDS011;4500;49.074;9.110;2024-01-15T01:57:02;1.00;;;1.00;;
8929;SDS011;4500;49.074;9.110;2024-01-15T01:59:31;1.00;;;1.00;;
8929;SDS011;4500;49.074;9.110;2024-01-15T02:02:00;0.85;;;0.85;;
8929;SDS011;4500;49.074;9.110;2024-01-15T02:04:31;1.10;;;1.10;;
8929;SDS011;4500;49.074;9.110;2024-01-15T02:07:02;0.98;;;0.98;;
8929;SDS011;4500;49.074;9.110;2024-01-15T02:09:31;2.67;;;2.58;;
8929;SDS011;4500;49.074;9.110;2024-01-15T02:11:59;2.55;;;2.45;;
8929;SDS011;4500;49.074;9.110;2024-01-15T02:14:27;1.30;;;1.20;;
8929;SDS011;4500;49.074;9.110;2024-01-15T02:16:54;0.82;;;0.82;;
8929;SDS011;4500;49.074;9.110;2024-01-15T02:19:22;3.45;;;3.33;;
8929;SDS011;4500;49.074;9.110;2024-01-15T02:21:49;5.47;;;5.22;;
8929;SDS011;4500;49.074;9.110;2024-01-15T02:24:17;6.38;;;6.07;;
8929;SDS011;4500;49.074;9.110;2024-01-15T02:26:44;5.80;;;5.50;;
8929;SDS011;4500;49.074;9.110;2024-01-15T02:29:12;7.28;;;6.90;;
8929;SDS011;4500;49.074;9.110;2024-01-15T02:31:39;3.67;;;3.47;;
8929;SDS011;4500;49.074;9.110;2024-01-15T02:34:07;3.38;;;3.22;;
8929;SDS011;4500;49.074;9.110;2024-01-15T02:36:34;2.60;;;2.50;;
8929;SDS011;4500;49.074;9.110;2024-01-15T02:39:02;1.08;;;1.08;;
8929;SDS011;4500;49.074;9.110;2024-01-15T02:41:30;1.65;;;1.55;;
8929;SDS011;4500;49.074;9.110;2024-01-15T02:43:57;6.97;;;6.45;;
8929;SDS011;4500;49.074;9.110;2024-01-15T02:46:24;1.13;;;1.13;;
8929;SDS011;4500;49.074;9.110;2024-01-15T02:48:52;2.75;;;2.65;;
8929;SDS011;4500;49.074;9.110;2024-01-15T02:51:19;6.75;;;6.45;;
8929;SDS011;4500;49.074;9.110;2024-01-15T02:53:48;5.40;;;5.13;;
8929;SDS011;4500;49.074;9.110;2024-01-15T02:56:16;6.88;;;6.47;;
8929;SDS011;4500;49.074;9.110;2024-01-15T02:58:44;5.22;;;4.97;;
8929;SDS011;4500;49.074;9.110;2024-01-15T03:01:12;4.80;;;4.60;;
8929;SDS011;4500;49.074;9.110;2024-01-15T03:03:40;5.30;;;5.03;;
8929;SDS011;4500;49.074;9.110;2024-01-15T03:06:07;5.15;;;4.90;;
8929;SDS011;4500;49.074;9.110;2024-01-15T03:08:35;2.28;;;2.20;;
8929;SDS011;4500;49.074;9.110;2024-01-15T03:11:03;1.80;;;1.70;;
8929;SDS011;4500;49.074;9.110;2024-01-15T03:13:31;3.38;;;3.20;;
8929;SDS011;4500;49.074;9.110;2024-01-15T03:16:03;4.57;;;4.18;;
8929;SDS011;4500;49.074;9.110;2024-01-15T03:18:33;0.98;;;0.98;;
8929;SDS011;4500;49.074;9.110;2024-01-15T03:21:01;0.88;;;0.88;;
8929;SDS011;4500;49.074;9.110;2024-01-15T03:23:29;1.58;;;1.48;;
8929;SDS011;4500;49.074;9.110;2024-01-15T03:25:56;1.00;;;1.00;;
8929;SDS011;4500;49.074;9.110;2024-01-15T03:28:24;3.10;;;3.00;;
8929;SDS011;4500;49.074;9.110;2024-01-15T03:30:51;6.10;;;5.78;;
8929;SDS011;4500;49.074;9.110;2024-01-15T03:33:19;5.07;;;4.82;;
8929;SDS011;4500;49.074;9.110;2024-01-15T03:35:46;4.95;;;4.72;;
8929;SDS011;4500;49.074;9.110;2024-01-15T03:38:14;7.63;;;7.22;;
8929;SDS011;4500;49.074;9.110;2024-01-15T03:40:42;6.05;;;5.75;;
8929;SDS011;4500;49.074;9.110;2024-01-15T03:43:10;3.85;;;3.65;;
8929;SDS011;4500;49.074;9.110;2024-01-15T03:45:37;7.07;;;6.63;;
8929;SDS011;4500;49.074;9.110;2024-01-15T03:48:06;5.05;;;4.68;;
8929;SDS011;4500;49.074;9.110;2024-01-15T03:50:34;2.55;;;2.45;;
8929;SDS011;4500;49.074;9.110;2024-01-15T03:53:02;1.10;;;1.10;;
8929;SDS011;4500;49.074;9.110;2024-01-15T03:55:29;1.50;;;1.40;;
8929;SDS011;4500;49.074;9.110;2024-01-15T03:58:00;0.80;;;0.80;;
8929;SDS011;4500;49.074;9.110;2024-01-15T04:00:27;1.33;;;1.23;;
8929;SDS011;4500;49.074;9.110;2024-01-15T04:02:55;1.00;;;1.00;;
8929;SDS011;4500;49.074;9.110;2024-01-15T04:05:23;2.63;;;2.53;;
8929;SDS011;4500;49.074;9.110;2024-01-15T04:07:51;3.55;;;3.40;;
8929;SDS011;4500;49.074;9.110;2024-01-15T04:10:18;5.00;;;4.75;;
8929;SDS011;4500;49.074;9.110;2024-01-15T04:12:46;5.50;;;5.20;;
8929;SDS011;4500;49.074;9.110;2024-01-15T04:15:14;6.72;;;6.38;;
8929;SDS011;4500;49.074;9.110;2024-01-15T04:17:42;6.07;;;5.78;;
8929;SDS011;4500;49.074;9.110;2024-01-15T04:20:10;3.67;;;3.47;;
8929;SDS011;4500;49.074;9.110;2024-01-15T04:22:37;6.30;;;5.95;;
8929;SDS011;4500;49.074;9.110;2024-01-15T04:25:08;4.57;;;4.35;;
8929;SDS011;4500;49.074;9.110;2024-01-15T04:27:35;3.13;;;2.97;;
8929;SDS011;4500;49.074;9.110;2024-01-15T04:30:03;0.85;;;0.85;;
8929;SDS011;4500;49.074;9.110;2024-01-15T04:32:31;1.75;;;1.65;;
8929;SDS011;4500;49.074;9.110;2024-01-15T04:34:58;1.05;;;1.05;;
8929;SDS011;4500;49.074;9.110;2024-01-15T04:37:26;0.75;;;0.75;;
8929;SDS011;4500;49.074;9.110;2024-01-15T04:39:54;1.45;;;1.45;;
8929;SDS011;4500;49.074;9.110;2024-01-15T04:42:21;3.88;;;3.67;;
8929;SDS011;4500;49.074;9.110;2024-01-15T04:44:49;5.50;;;5.22;;
8929;SDS011;4500;49.074;9.110;2024-01-15T04:47:17;6.15;;;5.85;;
8929;SDS011;4500;49.074;9.110;2024-01-15T04:49:44;6.07;;;5.78;;
8929;SDS011;4500;49.074;9.110;2024-01-15T04:52:13;5.93;;;5.63;;
8929;SDS011;4500;49.074;9.110;2024-01-15T04:54:40;4.75;;;4.55;;
8929;SDS011;4500;49.074;9.110;2024-01-15T04:57:08;4.28;;;4.07;;
8929;SDS011;4500;49.074;9.110;2024-01-15T04:59:35;3.47;;;3.33;;
8929;SDS011;4500;49.074;9.110;2024-01-15T05:02:02;0.80;;;0.80;;
8929;SDS011;4500;49.074;9.110;2024-01-15T05:04:30;3.67;;;3.47;;
8929;SDS011;4500;49.074;9.110;2024-01-15T05:06:58;1.20;;;1.13;;
8929;SDS011;4500;49.074;9.110;2024-01-15T05:09:27;2.30;;;2.20;;
8929;SDS011;4500;49.074;9.110;2024-01-15T05:11:58;0.85;;;0.85;;
8929;SDS011;4500;49.074;9.110;2024-01-15T05:14:26;1.10;;;1.00;;
8929;SDS011;4500;49.074;9.110;2024-01-15T05:16:54;1.58;;;1.58;;
8929;SDS011;4500;49.074;9.110;2024-01-15T05:19:21;3.83;;;3.63;;
8929;SDS011;4500;49.074;9.110;2024-01-15T05:21:49;5.05;;;4.82;;
8929;SDS011;4500;49.074;9.110;2024-01-15T05:24:16;5.50;;;5.20;;
8929;SDS011;4500;49.074;9.110;2024-01-15T05:26:45;5.18;;;4.93;;
8929;SDS011;4500;49.074;9.110;2024-01-15T05:29:20;5.38;;;5.10;;
8929;SDS011;4500;49.074;9.110;2024-01-15T05:31:48;9.38;;;8.63;;
8929;SDS011;4500;49.074;9.110;2024-01-15T05:34:16;4.95;;;4.72;;
8929;SDS011;4500;49.074;9.110;2024-01-15T05:36:44;6.88;;;6.55;;
8929;SDS011;4500;49.074;9.110;2024-01-15T05:39:14;6.20;;;5.90;;
8929;SDS011;4500;49.074;9.110;2024-01-15T05:41:42;5.47;;;5.22;;
8929;SDS011;4500;49.074;9.110;2024-01-15T05:44:10;4.70;;;4.50;;
8929;SDS011;4500;49.074;9.110;2024-01-15T05:46:38;4.88;;;4.68;;
8929;SDS011;4500;49.074;9.110;2024-01-15T05:49:06;2.55;;;2.45;;
8929;SDS011;4500;49.074;9.110;2024-01-15T05:51:33;7.47;;;6.85;;
8929;SDS011;4500;49.074;9.110;2024-01-15T05:54:01;0.90;;;0.90;;
8929;SDS011;4500;49.074;9.110;2024-01-15T05:56:29;1.98;;;1.88;;
8929;SDS011;4500;49.074;9.110;2024-01-15T05:58:56;2.75;;;2.65;;
8929;SDS011;4500;49.074;9.110;2024-01-15T06:01:24;1.40;;;1.40;;
8929;SDS011;4500;49.074;9.110;2024-01-15T06:03:52;3.85;;;3.67;;
8929;SDS011;4500;49.074;9.110;2024-01-15T06:06:19;4.40;;;4.20;;
8929;SDS011;4500;49.074;9.110;2024-01-15T06:08:46;5.28;;;5.03;;
8929;SDS011;4500;49.074;9.110;2024-01-15T06:11:14;6.20;;;5.90;;
8929;SDS011;4500;49.074;9.110;2024-01-15T06:13:42;5.68;;;5.38;;
8929;SDS011;4500;49.074;9.110;2024-01-15T06:16:16;5.65;;;5.35;;
8929;SDS011;4500;49.074;9.110;2024-01-15T06:18:46;5.05;;;4.82;;
8929;SDS011;4500;49.074;9.110;2024-01-15T06:21:13;6.35;;;6.05;;
8929;SDS011;4500;49.074;9.110;2024-01-15T06:23:41;7.30;;;6.93;;
8929;SDS011;4500;49.074;9.110;2024-01-15T06:26:11;3.88;;;3.67;;
8929;SDS011;4500;49.074;9.110;2024-01-15T06:28:38;7.28;;;6.60;;
8929;SDS011;4500;49.074;9.110;2024-01-15T06:31:07;4.07;;;3.90;;
8929;SDS011;4500;49.074;9.110;2024-01-15T06:33:37;2.85;;;2.72;;
8929;SDS011;4500;49.074;9.110;2024-01-15T06:36:05;2.40;;;2.30;;
8929;SDS011;4500;49.074;9.110;2024-01-15T06:38:33;2.40;;;2.25;;
8929;SDS011;4500;49.074;9.110;2024-01-15T06:41:02;1.45;;;1.38;;
8929;SDS011;4500;49.074;9.110;2024-01-15T06:43:30;1.02;;;1.02;;
8929;SDS011;4500;49.074;9.110;2024-01-15T06:45:58;0.98;;;0.98;;
8929;SDS011;4500;49.074;9.110;2024-01-15T06:48:31;1.17;;;1.17;;
8929;SDS011;4500;49.074;9.110;2024-01-15T06:50:59;1.40;;;1.40;;
8929;SDS011;4500;49.074;9.110;2024-01-15T06:53:28;0.80;;;0.80;;
8929;SDS011;4500;49.074;9.110;2024-01-15T06:55:55;1.10;;;1.10;;
8929;SDS011;4500;49.074;9.110;2024-01-15T06:58:22;2.35;;;2.25;;
8929;SDS011;4500;49.074;9.110;2024-01-15T07:00:50;5.53;;;5.28;;
8929;SDS011;4500;49.074;9.110;2024-01-15T07:03:17;5.13;;;4.90;;
8929;SDS011;4500;49.074;9.110;2024-01-15T07:05:45;5.47;;;5.20;;
8929;SDS011;4500;49.074;9.110;2024-01-15T07:08:13;5.47;;;5.20;;
8929;SDS011;4500;49.074;9.110;2024-01-15T07:10:41;10.65;;;10.02;;
8929;SDS011;4500;49.074;9.110;2024-01-15T07:13:08;3.67;;;3.47;;
8929;SDS011;4500;49.074;9.110;2024-01-15T07:15:36;3.03;;;2.85;;
8929;SDS011;4500;49.074;9.110;2024-01-15T07:18:04;1.58;;;1.50;;
8929;SDS011;4500;49.074;9.110;2024-01-15T07:20:31;1.70;;;1.63;;
8929;SDS011;4500;49.074;9.110;2024-01-15T07:22:59;1.10;;;1.10;;
8929;SDS011;4500;49.074;9.110;2024-01-15T07:25:30;2.65;;;2.50;;
8929;SDS011;4500;49.074;9.110;2024-01-15T07:27:58;0.95;;;0.95;;
8929;SDS011;4500;49.074;9.110;2024-01-15T07:30:25;0.80;;;0.80;;
8929;SDS011;4500;49.074;9.110;2024-01-15T07:32:53;1.95;;;1.85;;
8929;SDS011;4500;49.074;9.110;2024-01-15T07:35:20;6.63;;;6.28;;
8929;SDS011;4500;49.074;9.110;2024-01-15T07:37:48;5.45;;;5.20;;
8929;SDS011;4500;49.074;9.110;2024-01-15T07:40:15;5.07;;;4.85;;
8929;SDS011;4500;49.074;9.110;2024-01-15T07:42:43;6.13;;;5.82;;
8929;SDS011;4500;49.074;9.110;2024-01-15T07:45:14;6.68;;;6.38;;
8929;SDS011;4500;49.074;9.110;2024-01-15T07:47:41;5.03;;;4.80;;
8929;SDS011;4500;49.074;9.110;2024-01-15T07:50:09;3.05;;;2.95;;
8929;SDS011;4500;49.074;9.110;2024-01-15T07:52:36;2.97;;;2.85;;
8929;SDS011;4500;49.074;9.110;2024-01-15T07:55:04;1.90;;;1.83;;
8929;SDS011;4500;49.074;9.110;2024-01-15T07:57:33;1.00;;;1.00;;
8929;SDS011;4500;49.074;9.110;2024-01-15T08:00:03;1.10;;;1.10;;
8929;SDS011;4500;49.074;9.110;2024-01-15T08:02:32;1.27;;;1.27;;
8929;SDS011;4500;49.074;9.110;2024-01-15T08:05:03;2.75;;;2.55;;
8929;SDS011;4500;49.074;9.110;2024-01-15T08:07:31;0.90;;;0.90;;
8929;SDS011;4500;49.074;9.110;2024-01-15T08:09:59;0.98;;;0.98;;
8929;SDS011;4500;49.074;9.110;2024-01-15T08:12:26;1.00;;;1.00;;
8929;SDS011;4500;49.074;9.110;2024-01-15T08:14:54;1.45;;;1.45;;
8929;SDS011;4500;49.074;9.110;2024-01-15T08:17:21;5.43;;;4.95;;
8929;SDS011;4500;49.074;9.110;2024-01-15T08:19:50;5.40;;;5.18;;
8929;SDS011;4500;49.074;9.110;2024-01-15T08:22:17;5.43;;;5.15;;
8929;SDS011;4500;49.074;9.110;2024-01-15T08:24:45;5.95;;;5.65;;
8929;SDS011;4500;49.074;9.110;2024-01-15T08:27:14;14.75;;;8.43;;
8929;SDS011;4500;49.074;9.110;2024-01-15T08:29:42;6.25;;;5.95;;
8929;SDS011;4500;49.074;9.110;2024-01-15T08:32:09;3.65;;;3.45;;
8929;SDS011;4500;49.074;9.110;2024-01-15T08:34:41;5.45;;;5.18;;
8929;SDS011;4500;49.074;9.110;2024-01-15T08:37:09;3.83;;;3.63;;
8929;SDS011;4500;49.074;9.110;2024-01-15T08:39:36;2.75;;;2.65;;
8929;SDS011;4500;49.074;9.110;2024-01-15T08:42:05;2.17;;;2.08;;
8929;SDS011;4500;49.074;9.110;2024-01-15T08:44:33;1.38;;;1.38;;
8929;SDS011;4500;49.074;9.110;2024-01-15T08:47:00;1.20;;;1.20;;
8929;SDS011;4500;49.074;9.110;2024-01-15T08:49:29;1.10;;;1.10;;
8929;SDS011;4500;49.074;9.110;2024-01-15T08:51:57;1.27;;;1.23;;
8929;SDS011;4500;49.074;9.110;2024-01-15T08:54:25;12.43;;;5.60;;
8929;SDS011;4500;49.074;9.110;2024-01-15T08:56:52;7.93;;;7.43;;
8929;SDS011;4500;49.074;9.110;2024-01-15T08:59:21;4.90;;;4.60;;
8929;SDS011;4500;49.074;9.110;2024-01-15T09:01:52;5.50;;;5.10;;
8929;SDS011;4500;49.074;9.110;2024-01-15T09:04:20;5.05;;;4.85;;
8929;SDS011;4500;49.074;9.110;2024-01-15T09:06:47;6.70;;;6.32;;
8929;SDS011;4500;49.074;9.110;2024-01-15T09:09:15;4.95;;;4.75;;
8929;SDS011;4500;49.074;9.110;2024-01-15T09:11:45;5.82;;;5.53;;
8929;SDS011;4500;49.074;9.110;2024-01-15T09:14:13;6.15;;;5.85;;
8929;SDS011;4500;49.074;9.110;2024-01-15T09:16:55;1.40;;;1.40;;
8929;SDS011;4500;49.074;9.110;2024-01-15T09:19:23;1.98;;;1.88;;
8929;SDS011;4500;49.074;9.110;2024-01-15T09:21:51;4.10;;;3.90;;
8929;SDS011;4500;49.074;9.110;2024-01-15T09:24:19;6.15;;;5.85;;
8929;SDS011;4500;49.074;9.110;2024-01-15T09:26:54;1.58;;;1.55;;
8929;SDS011;4500;49.074;9.110;2024-01-15T09:29:22;3.53;;;3.40;;
8929;SDS011;4500;49.074;9.110;2024-01-15T09:31:50;5.60;;;5.30;;
8929;SDS011;4500;49.074;9.110;2024-01-15T09:34:18;6.65;;;6.10;;
8929;SDS011;4500;49.074;9.110;2024-01-15T09:36:48;5.90;;;5.60;;
8929;SDS011;4500;49.074;9.110;2024-01-15T09:39:16;5.03;;;4.80;;
8929;SDS011;4500;49.074;9.110;2024-01-15T09:41:44;6.80;;;6.45;;
8929;SDS011;4500;49.074;9.110;2024-01-15T09:44:12;4.53;;;4.32;;
8929;SDS011;4500;49.074;9.110;2024-01-15T09:46:40;7.57;;;6.88;;
8929;SDS011;4500;49.074;9.110;2024-01-15T09:49:10;4.85;;;4.63;;
8929;SDS011;4500;49.074;9.110;2024-01-15T09:51:38;4.28;;;4.07;;
8929;SDS011;4500;49.074;9.110;2024-01-15T09:54:07;2.08;;;2.00;;
8929;SDS011;4500;49.074;9.110;2024-01-15T09:56:35;2.25;;;2.17;;
8929;SDS011;4500;49.074;9.110;2024-01-15T09:59:04;0.90;;;0.90;;
8929;SDS011;4500;49.074;9.110;2024-01-15T10:01:31;1.55;;;1.45;;
8929;SDS011;4500;49.074;9.110;2024-01-15T10:03:59;1.10;;;1.10;;
8929;SDS011;4500;49.074;9.110;2024-01-15T10:06:27;1.10;;;1.10;;
8929;SDS011;4500;49.074;9.110;2024-01-15T10:08:56;1.75;;;1.65;;
8929;SDS011;4500;49.074;9.110;2024-01-15T10:11:25;1.10;;;1.10;;
8929;SDS011;4500;49.074;9.110;2024-01-15T10:13:55;1.10;;;1.10;;
8929;SDS011;4500;49.074;9.110;2024-01-15T10:16:24;1.70;;;1.70;;
8929;SDS011;4500;49.074;9.110;2024-01-15T10:18:52;3.13;;;3.03;;
8929;SDS011;4500;49.074;9.110;2024-01-15T10:21:20;5.32;;;5.10;;
8929;SDS011;4500;49.074;9.110;2024-01-15T10:23:47;5.13;;;4.90;;
8929;SDS011;4500;49.074;9.110;2024-01-15T10:26:15;5.85;;;5.55;;
8929;SDS011;4500;49.074;9.110;2024-01-15T10:28:44;6.38;;;6.05;;
8929;SDS011;4500;49.074;9.110;2024-01-15T10:31:12;6.10;;;5.80;;
8929;SDS011;4500;49.074;9.110;2024-01-15T10:33:39;3.78;;;3.58;;
8929;SDS011;4500;49.074;9.110;2024-01-15T10:36:09;4.22;;;4.03;;
8929;SDS011;4500;49.074;9.110;2024-01-15T10:38:40;2.85;;;2.75;;
8929;SDS011;4500;49.074;9.110;2024-01-15T10:41:09;3.63;;;3.42;;
8929;SDS011;4500;49.074;9.110;2024-01-15T10:43:37;5.95;;;5.60;;
8929;SDS011;4500;49.074;9.110;2024-01-15T10:46:05;2.63;;;2.53;;
8929;SDS011;4500;49.074;9.110;2024-01-15T10:48:32;1.20;;;1.20;;
8929;SDS011;4500;49.074;9.110;2024-01-15T10:51:02;1.00;;;1.00;;
8929;SDS011;4500;49.074;9.110;2024-01-15T10:53:38;3.75;;;3.58;;
8929;SDS011;4500;49.074;9.110;2024-01-15T10:56:09;3.05;;;2.95;;
8929;SDS011;4500;49.074;9.110;2024-01-15T10:58:37;3.10;;;2.95;;
8929;SDS011;4500;49.074;9.110;2024-01-15T11:01:06;3.25;;;3.05;;
8929;SDS011;4500;49.074;9.110;2024-01-15T11:03:33;1.00;;;1.00;;
8929;SDS011;4500;49.074;9.110;2024-01-15T11:06:02;1.10;;;1.10;;
8929;SDS011;4500;49.074;9.110;2024-01-15T11:08:31;0.98;;;0.98;;
8929;SDS011;4500;49.074;9.110;2024-01-15T11:10:59;1.65;;;1.55;;
8929;SDS011;4500;49.074;9.110;2024-01-15T11:15:59;1.40;;;1.40;;
8929;SDS011;4500;49.074;9.110;2024-01-15T11:18:29;2.10;;;2.00;;
8929;SDS011;4500;49.074;9.110;2024-01-15T11:26:29;5.15;;;4.93;;
8929;SDS011;4500;49.074;9.110;2024-01-15T11:34:07;2.45;;;2.35;;
8929;SDS011;4500;49.074;9.110;2024-01-15T11:42:00;1.35;;;1.35;;
8929;SDS011;4500;49.074;9.110;2024-01-15T11:44:30;0.85;;;0.85;;
8929;SDS011;4500;49.074;9.110;2024-01-15T11:52:19;5.05;;;4.82;;
8929;SDS011;4500;49.074;9.110;2024-01-15T11:55:00;5.10;;;4.90;;
8929;SDS011;4500;49.074;9.110;2024-01-15T11:57:41;1.95;;;1.88;;
8929;SDS011;4500;49.074;9.110;2024-01-15T12:00:13;6.28;;;5.97;;
8929;SDS011;4500;49.074;9.110;2024-01-15T12:02:42;6.05;;;5.75;;
8929;SDS011;4500;49.074;9.110;2024-01-15T12:05:11;3.67;;;3.47;;
8929;SDS011;4500;49.074;9.110;2024-01-15T12:07:43;6.35;;;6.05;;
8929;SDS011;4500;49.074;9.110;2024-01-15T12:10:20;4.70;;;4.50;;
8929;SDS011;4500;49.074;9.110;2024-01-15T12:15:41;3.97;;;3.78;;
8929;SDS011;4500;49.074;9.110;2024-01-15T12:18:10;2.97;;;2.88;;
8929;SDS011;4500;49.074;9.110;2024-01-15T12:20:40;3.35;;;3.20;;
8929;SDS011;4500;49.074;9.110;2024-01-15T12:23:09;4.25;;;4.05;;
8929;SDS011;4500;49.074;9.110;2024-01-15T12:25:37;2.47;;;2.40;;
8929;SDS011;4500;49.074;9.110;2024-01-15T12:28:04;2.50;;;2.40;;
8929;SDS011;4500;49.074;9.110;2024-01-15T12:30:33;1.10;;;1.10;;
8929;SDS011;4500;49.074;9.110;2024-01-15T12:33:02;1.33;;;1.33;;
8929;SDS011;4500;49.074;9.110;2024-01-15T12:35:33;1.20;;;1.20;;
8929;SDS011;4500;49.074;9.110;2024-01-15T12:38:01;1.33;;;1.33;;
8929;SDS011;4500;49.074;9.110;2024-01-15T12:40:31;1.20;;;1.20;;
8929;SDS011;4500;49.074;9.110;2024-01-15T12:43:03;1.20;;;1.20;;
8929;SDS011;4500;49.074;9.110;2024-01-15T12:45:34;1.00;;;1.00;;
8929;SDS011;4500;49.074;9.110;2024-01-15T12:48:03;1.30;;;1.30;;
8929;SDS011;4500;49.074;9.110;2024-01-15T12:50:33;1.00;;;1.00;;
8929;SDS011;4500;49.074;9.110;2024-01-15T12:53:03;1.30;;;1.30;;
8929;SDS011;4500;49.074;9.110;2024-01-15T12:55:30;0.90;;;0.90;;
8929;SDS011;4500;49.074;9.110;2024-01-15T12:57:58;1.42;;;1.35;;
8929;SDS011;4500;49.074;9.110;2024-01-15T13:00:27;0.90;;;0.90;;
8929;SDS011;4500;49.074;9.110;2024-01-15T13:02:54;2.67;;;2.58;;
8929;SDS011;4500;49.074;9.110;2024-01-15T13:05:24;1.83;;;1.73;;
8929;SDS011;4500;49.074;9.110;2024-01-15T13:07:54;1.52;;;1.42;;
8929;SDS011;4500;49.074;9.110;2024-01-15T13:10:22;3.83;;;3.63;;
8929;SDS011;4500;49.074;9.110;2024-01-15T13:12:51;4.50;;;4.30;;
8929;SDS011;4500;49.074;9.110;2024-01-15T13:15:19;5.50;;;5.20;;
8929;SDS011;4500;49.074;9.110;2024-01-15T13:17:48;5.25;;;5.00;;
8929;SDS011;4500;49.074;9.110;2024-01-15T13:20:15;5.22;;;4.97;;
8929;SDS011;4500;49.074;9.110;2024-01-15T13:22:43;5.38;;;5.13;;
8929;SDS011;4500;49.074;9.110;2024-01-15T13:25:14;6.05;;;5.75;;
8929;SDS011;4500;49.074;9.110;2024-01-15T13:27:43;5.57;;;5.30;;
8929;SDS011;4500;49.074;9.110;2024-01-15T13:30:10;3.20;;;3.05;;
8929;SDS011;4500;49.074;9.110;2024-01-15T13:32:39;4.03;;;3.83;;
8929;SDS011;4500;49.074;9.110;2024-01-15T13:35:08;5.03;;;4.78;;
8929;SDS011;4500;49.074;9.110;2024-01-15T13:37:40;3.60;;;3.40;;
8929;SDS011;4500;49.074;9.110;2024-01-15T13:40:10;3.35;;;3.15;;
8929;SDS011;4500;49.074;9.110;2024-01-15T13:42:43;6.45;;;6.15;;
8929;SDS011;4500;49.074;9.110;2024-01-15T13:45:11;5.40;;;5.13;;
8929;SDS011;4500;49.074;9.110;2024-01-15T13:47:41;6.15;;;5.85;;
8929;SDS011;4500;49.074;9.110;2024-01-15T13:50:10;6.05;;;5.75;;
8929;SDS011;4500;49.074;9.110;2024-01-15T13:52:38;4.65;;;4.45;;
8929;SDS011;4500;49.074;9.110;2024-01-15T13:55:06;2.50;;;2.40;;
8929;SDS011;4500;49.074;9.110;2024-01-15T13:57:36;3.17;;;3.03;;
8929;SDS011;4500;49.074;9.110;2024-01-15T14:00:04;1.25;;;1.25;;
8929;SDS011;4500;49.074;9.110;2024-01-15T14:02:37;5.75;;;5.38;;
8929;SDS011;4500;49.074;9.110;2024-01-15T14:05:04;2.05;;;1.95;;
8929;SDS011;4500;49.074;9.110;2024-01-15T14:07:33;1.30;;;1.30;;
8929;SDS011;4500;49.074;9.110;2024-01-15T14:10:01;1.85;;;1.75;;
8929;SDS011;4500;49.074;9.110;2024-01-15T14:12:29;1.05;;;1.05;;
8929;SDS011;4500;49.074;9.110;2024-01-15T14:14:57;2.95;;;2.75;;
8929;SDS011;4500;49.074;9.110;2024-01-15T14:17:25;1.05;;;1.05;;
8929;SDS011;4500;49.074;9.110;2024-01-15T14:19:53;2.65;;;2.55;;
8929;SDS011;4500;49.074;9.110;2024-01-15T14:22:23;3.15;;;3.05;;
8929;SDS011;4500;49.074;9.110;2024-01-15T14:24:51;4.20;;;4.00;;
8929;SDS011;4500;49.074;9.110;2024-01-15T14:27:19;5.20;;;4.95;;
8929;SDS011;4500;49.074;9.110;2024-01-15T14:29:48;6.63;;;6.30;;
8929;SDS011;4500;49.074;9.110;2024-01-15T14:32:15;5.45;;;5.18;;
8929;SDS011;4500;49.074;9.110;2024-01-15T14:34:43;6.05;;;5.75;;
8929;SDS011;4500;49.074;9.110;2024-01-15T14:37:11;5.28;;;5.00;;
8929;SDS011;4500;49.074;9.110;2024-01-15T14:39:38;4.75;;;4.55;;
8929;SDS011;4500;49.074;9.110;2024-01-15T14:42:05;2.65;;;2.53;;
8929;SDS011;4500;49.074;9.110;2024-01-15T14:44:32;0.90;;;0.90;;
8929;SDS011;4500;49.074;9.110;2024-01-15T14:47:01;0.90;;;0.90;;
8929;SDS011;4500;49.074;9.110;2024-01-15T14:49:29;1.05;;;1.05;;
8929;SDS011;4500;49.074;9.110;2024-01-15T14:51:58;0.90;;;0.90;;
8929;SDS011;4500;49.074;9.110;2024-01-15T14:54:26;2.88;;;2.67;;
8929;SDS011;4500;49.074;9.110;2024-01-15T14:56:53;2.22;;;2.13;;
8929;SDS011;4500;49.074;9.110;2024-01-15T14:59:22;3.65;;;3.47;;
8929;SDS011;4500;49.074;9.110;2024-01-15T15:01:50;4.72;;;4.53;;
8929;SDS011;4500;49.074;9.110;2024-01-15T15:04:17;5.13;;;4.90;;
8929;SDS011;4500;49.074;9.110;2024-01-15T15:06:45;5.40;;;5.15;;
8929;SDS011;4500;49.074;9.110;2024-01-15T15:09:13;6.25;;;5.95;;
8929;SDS011;4500;49.074;9.110;2024-01-15T15:11:42;15.63;;;13.93;;
8929;SDS011;4500;49.074;9.110;2024-01-15T15:14:09;4.40;;;4.20;;
8929;SDS011;4500;49.074;9.110;2024-01-15T15:16:37;3.15;;;3.00;;
8929;SDS011;4500;49.074;9.110;2024-01-15T15:19:06;2.50;;;2.40;;
8929;SDS011;4500;49.074;9.110;2024-01-15T15:21:33;1.00;;;1.00;;
8929;SDS011;4500;49.074;9.110;2024-01-15T15:24:01;2.08;;;1.98;;
8929;SDS011;4500;49.074;9.110;2024-01-15T15:26:30;1.30;;;1.30;;
8929;SDS011;4500;49.074;9.110;2024-01-15T15:28:58;0.95;;;0.95;;
8929;SDS011;4500;49.074;9.110;2024-01-15T15:31:26;0.90;;;0.90;;
8929;SDS011;4500;49.074;9.110;2024-01-15T15:33:53;2.55;;;2.45;;
8929;SDS011;4500;49.074;9.110;2024-01-15T15:36:21;4.70;;;4.50;;
8929;SDS011;4500;49.074;9.110;2024-01-15T15:38:50;4.93;;;4.72;;
8929;SDS011;4500;49.074;9.110;2024-01-15T15:41:20;5.07;;;4.88;;
8929;SDS011;4500;49.074;9.110;2024-01-15T15:43:50;5.38;;;5.13;;
8929;SDS011;4500;49.074;9.110;2024-01-15T15:46:17;4.82;;;4.63;;
8929;SDS011;4500;49.074;9.110;2024-01-15T15:48:45;5.65;;;5.35;;